Terminal Aerodrome Forecast
Issued by NWS Indianapolis, IN

Home | Current Version | Previous Version | Text Only | Print | Product List | Glossary On
Versions: 1 2 3 4 5 6 7 8 9 10 11 12 13 14 15 16 17 18 19 20 21 22 23 24 25 26
000
FTUS43 KIND 062026 AAA
TAFIND
TAF AMD
KIND 062026Z 0620/0724 30009KT P6SM FEW300
     FM070000 24008KT P6SM FEW120 SCT250
     FM071400 28015G23KT P6SM SCT100 BKN250
     FM072000 28015G25KT P6SM VCTS SCT050CB BKN100=

USA.gov is the U.S. government's official web portal to all federal, state and local government web resources and services.